createdAt,value
2022-11-13T00:03:19.392Z,32.85
2022-11-13T00:08:41.982Z,33.22
2022-11-13T00:14:04.152Z,30.42
2022-11-13T00:19:27.626Z,32.00
2022-11-13T00:24:49.956Z,31.10
2022-11-13T00:30:18.906Z,30.02
2022-11-13T00:35:43.019Z,27.20
2022-11-13T00:41:05.565Z,26.85
2022-11-13T00:46:27.440Z,27.92
2022-11-13T00:51:50.793Z,26.73
2022-11-13T00:57:13.042Z,29.13
2022-11-13T01:02:34.970Z,27.45
2022-11-13T01:07:58.374Z,26.45
2022-11-13T01:13:20.743Z,25.60
2022-11-13T01:18:44.021Z,26.90
2022-11-13T01:24:07.945Z,28.45
2022-11-13T01:29:30.410Z,27.30
2022-11-13T01:34:52.341Z,26.65
2022-11-13T01:40:15.928Z,25.90
2022-11-13T01:46:06.801Z,24.85
2022-11-13T01:51:31.598Z,26.00
2022-11-13T01:56:56.516Z,27.98
2022-11-13T02:02:18.905Z,26.80
2022-11-13T02:07:40.862Z,26.40
2022-11-13T02:13:04.653Z,26.92
2022-11-13T02:18:27.916Z,25.75
2022-11-13T02:23:55.285Z,25.95
2022-11-13T02:29:19.008Z,24.75
2022-11-13T02:34:41.197Z,24.60
2022-11-13T02:40:03.229Z,24.92
2022-11-13T02:45:26.957Z,23.90
2022-11-13T02:50:49.342Z,24.52
2022-11-13T02:56:11.459Z,22.73
2022-11-13T03:01:35.022Z,24.27
2022-11-13T03:06:57.272Z,23.05
2022-11-13T03:12:20.003Z,24.90
2022-11-13T03:17:43.380Z,24.52
2022-11-13T03:23:06.114Z,25.42
2022-11-13T03:28:28.797Z,25.02
2022-11-13T03:33:53.642Z,24.73
2022-11-13T03:39:15.794Z,25.52
2022-11-13T03:44:37.697Z,25.08
2022-11-13T03:50:01.634Z,23.50
2022-11-13T03:55:25.206Z,25.48
2022-11-13T04:00:48.157Z,25.15
2022-11-13T04:06:11.950Z,26.00
2022-11-13T04:11:34.258Z,24.55
2022-11-13T04:16:56.339Z,24.60
2022-11-13T04:22:20.159Z,23.38
2022-11-13T04:27:42.356Z,23.58
2022-11-13T04:33:04.907Z,22.45
2022-11-13T04:38:28.939Z,23.35
2022-11-13T04:43:51.514Z,22.00
2022-11-13T04:49:13.534Z,23.02
2022-11-13T04:54:36.972Z,22.00
2022-11-13T04:59:59.303Z,22.70
2022-11-13T05:05:21.234Z,23.08
2022-11-13T05:10:44.884Z,22.58
2022-11-13T05:16:08.695Z,23.27
2022-11-13T05:21:31.091Z,23.90
2022-11-13T05:26:54.660Z,22.90
2022-11-13T05:32:16.961Z,24.40
2022-11-13T05:37:39.068Z,23.92
2022-11-13T05:43:02.407Z,23.00
2022-11-13T05:48:24.741Z,22.30
2022-11-13T05:53:47.601Z,21.42
2022-11-13T05:59:11.240Z,20.33
2022-11-13T06:04:33.605Z,20.17
2022-11-13T06:09:55.591Z,19.75
2022-11-13T06:15:18.939Z,20.10
2022-11-13T06:20:41.234Z,20.45
2022-11-13T06:26:03.737Z,21.92
2022-11-13T06:31:28.992Z,21.67
2022-11-13T06:36:51.014Z,21.95
2022-11-13T06:42:13.130Z,21.27
2022-11-13T06:47:36.512Z,20.50
2022-11-13T06:52:58.793Z,20.98
2022-11-13T06:58:20.967Z,21.45
2022-11-13T07:03:44.555Z,21.85
2022-11-13T07:09:06.605Z,23.27
2022-11-13T07:14:28.829Z,23.23
2022-11-13T07:19:52.571Z,30.17
2022-11-13T07:25:17.011Z,34.17
2022-11-13T07:30:39.217Z,32.67
2022-11-13T07:36:02.897Z,32.83
2022-11-13T07:41:25.007Z,35.25
2022-11-13T07:46:47.190Z,33.15
2022-11-13T07:52:10.848Z,29.00
2022-11-13T07:57:32.797Z,26.83
2022-11-13T08:02:55.216Z,26.45
2022-11-13T08:08:18.899Z,26.50
2022-11-13T08:13:41.150Z,24.35
2022-11-13T08:19:03.613Z,24.20
2022-11-13T08:24:27.241Z,23.38
2022-11-13T08:29:49.581Z,22.30
2022-11-13T08:35:14.802Z,22.55
2022-11-13T08:40:42.354Z,21.95
2022-11-13T08:46:04.593Z,21.42
2022-11-13T08:51:26.629Z,20.45
2022-11-13T08:56:55.850Z,19.98
2022-11-13T09:02:19.337Z,20.70
2022-11-13T09:07:41.287Z,18.75
2022-11-13T09:13:06.092Z,18.80
2022-11-13T09:18:29.284Z,18.02
2022-11-13T09:23:52.069Z,19.00
2022-11-13T09:29:15.741Z,19.52
2022-11-13T09:34:37.813Z,19.55
2022-11-13T09:40:00.147Z,18.05
2022-11-13T09:45:24.290Z,19.40
2022-11-13T09:50:46.542Z,18.42
2022-11-13T09:56:19.994Z,18.50
2022-11-13T10:01:51.069Z,17.08
2022-11-13T10:07:26.263Z,16.23
2022-11-13T10:12:50.531Z,16.23
2022-11-13T10:18:18.007Z,16.08
2022-11-13T10:23:40.550Z,15.65
2022-11-13T10:29:10.037Z,14.73
2022-11-13T10:34:34.395Z,14.77
2022-11-13T10:39:56.471Z,15.07
2022-11-13T10:45:20.985Z,14.88
2022-11-13T10:50:44.450Z,15.60
2022-11-13T10:56:15.616Z,15.75
2022-11-13T11:01:37.757Z,15.05
2022-11-13T11:07:19.649Z,17.35
2022-11-13T11:12:43.032Z,15.55
2022-11-13T11:18:08.150Z,15.32
2022-11-13T11:23:38.730Z,13.85
2022-11-13T11:29:07.534Z,14.93
2022-11-13T11:34:34.505Z,14.70
2022-11-13T11:40:02.694Z,12.77
2022-11-13T11:45:27.371Z,13.35
2022-11-13T11:50:55.604Z,11.20
2022-11-13T11:56:25.020Z,11.77
2022-11-13T12:02:22.098Z,17.52
2022-11-13T12:07:51.409Z,12.20
2022-11-13T12:13:29.463Z,14.05
2022-11-13T12:18:57.306Z,13.02
2022-11-13T12:24:37.706Z,13.20
2022-11-13T12:30:10.963Z,14.65
2022-11-13T12:35:33.265Z,17.27
2022-11-13T12:40:59.013Z,20.10
2022-11-13T12:51:55.491Z,11.30
2022-11-13T12:57:23.451Z,15.55
2022-11-13T13:03:10.003Z,11.02
2022-11-13T13:08:56.060Z,10.60
2022-11-13T13:14:31.821Z,13.82
2022-11-13T13:20:04.221Z,11.38
2022-11-13T13:25:27.946Z,12.50
2022-11-13T13:31:02.417Z,11.88
2022-11-13T13:36:34.209Z,12.13
2022-11-13T13:42:16.378Z,14.38
2022-11-13T13:47:40.301Z,14.65
2022-11-13T13:53:04.101Z,17.10
2022-11-13T13:58:29.447Z,14.40
2022-11-13T14:04:04.679Z,22.53
2022-11-13T14:09:29.354Z,16.98
2022-11-13T14:14:51.571Z,18.50
2022-11-13T14:20:14.227Z,21.35
2022-11-13T14:25:38.214Z,21.23
2022-11-13T14:31:02.560Z,21.33
2022-11-13T14:36:30.057Z,21.10
2022-11-13T14:41:56.122Z,19.55
2022-11-13T14:47:24.199Z,19.27
2022-11-13T14:52:57.156Z,21.05
2022-11-13T14:58:29.831Z,24.38
2022-11-13T15:03:53.374Z,30.90
2022-11-13T15:09:17.797Z,32.13
2022-11-13T15:14:42.880Z,31.92
2022-11-13T15:20:09.682Z,33.22
2022-11-13T15:25:32.319Z,32.60
2022-11-13T15:30:55.977Z,32.92
2022-11-13T15:36:18.259Z,33.97
2022-11-13T15:41:41.050Z,33.53
2022-11-13T15:47:04.631Z,34.38
2022-11-13T15:52:28.320Z,35.17
2022-11-13T15:57:50.506Z,34.58
2022-11-13T16:03:14.127Z,33.83
2022-11-13T16:08:36.487Z,34.67
2022-11-13T16:13:58.600Z,34.28
2022-11-13T16:19:25.809Z,35.38
2022-11-13T16:24:48.248Z,33.65
2022-11-13T16:30:16.390Z,35.25
2022-11-13T16:35:40.423Z,34.63
2022-11-13T16:41:02.797Z,34.97
2022-11-13T16:46:28.088Z,35.88
2022-11-13T16:51:52.155Z,36.30
2022-11-13T16:57:16.490Z,36.50
2022-11-13T17:02:38.679Z,36.13
2022-11-13T17:08:02.141Z,39.63
2022-11-13T17:13:24.452Z,38.00
2022-11-13T17:18:48.232Z,38.00
2022-11-13T17:24:11.687Z,40.08
2022-11-13T17:29:34.652Z,40.08
2022-11-13T17:34:57.284Z,39.05
2022-11-13T17:40:21.456Z,38.85
2022-11-13T17:45:43.984Z,37.10
2022-11-13T17:51:07.953Z,35.63
2022-11-13T17:56:31.823Z,35.15
2022-11-13T18:01:54.001Z,33.92
2022-11-13T18:07:16.481Z,34.88
2022-11-13T18:12:40.201Z,33.47
2022-11-13T18:18:02.356Z,33.60
2022-11-13T18:23:24.979Z,33.97
2022-11-13T18:28:48.528Z,33.83
2022-11-13T18:34:17.862Z,35.17
2022-11-13T18:39:40.438Z,32.53
2022-11-13T18:45:06.195Z,33.55
2022-11-13T18:50:28.716Z,31.73
2022-11-13T18:55:51.305Z,30.90
2022-11-13T19:01:21.807Z,31.40
2022-11-13T19:06:44.974Z,32.13
2022-11-13T19:12:08.186Z,31.98
2022-11-13T19:17:31.818Z,30.65
2022-11-13T19:22:54.094Z,31.15
2022-11-13T19:28:16.123Z,30.90
2022-11-13T19:33:39.945Z,31.45
2022-11-13T19:39:02.230Z,31.52
2022-11-13T19:44:24.200Z,33.38
2022-11-13T19:49:47.470Z,34.80
2022-11-13T19:55:10.378Z,37.53
2022-11-13T20:00:32.375Z,35.13
2022-11-13T20:05:59.423Z,38.85
2022-11-13T20:16:43.545Z,35.05
2022-11-13T20:22:07.469Z,34.15
2022-11-13T20:27:29.796Z,36.33
2022-11-13T20:32:52.420Z,36.38
2022-11-13T20:38:16.189Z,40.05
2022-11-13T20:43:39.624Z,39.05
2022-11-13T20:49:02.258Z,40.88
2022-11-13T20:54:25.990Z,41.15
2022-11-13T20:59:48.042Z,47.67
2022-11-13T21:05:10.393Z,43.47
2022-11-13T21:10:34.804Z,45.60
2022-11-13T21:15:57.393Z,51.35
2022-11-13T21:21:20.876Z,54.95
2022-11-13T21:26:46.437Z,56.90
2022-11-13T21:32:08.674Z,61.70
2022-11-13T21:37:33.282Z,63.42
2022-11-13T21:42:57.534Z,54.47
2022-11-13T21:48:19.910Z,52.25
2022-11-13T21:53:43.609Z,57.22
2022-11-13T21:59:07.593Z,54.28
2022-11-13T22:04:29.889Z,56.85
2022-11-13T22:09:51.953Z,61.92
2022-11-13T22:15:15.368Z,69.50
2022-11-13T22:20:37.682Z,71.95
2022-11-13T22:26:03.727Z,67.03
2022-11-13T22:31:29.952Z,70.90
2022-11-13T22:36:52.034Z,62.35
2022-11-13T22:42:14.666Z,61.53
2022-11-13T22:47:38.204Z,48.17
2022-11-13T22:53:00.737Z,50.05
2022-11-13T22:58:22.704Z,43.47
2022-11-13T23:03:47.784Z,37.90
2022-11-13T23:09:10.497Z,40.20
2022-11-13T23:14:32.501Z,39.63
2022-11-13T23:19:56.645Z,36.65
2022-11-13T23:25:19.383Z,34.88
2022-11-13T23:30:41.987Z,36.20
2022-11-13T23:36:06.312Z,38.25
2022-11-13T23:41:28.933Z,36.97
2022-11-13T23:46:50.958Z,35.53
2022-11-13T23:52:14.601Z,39.58
2022-11-13T23:57:36.753Z,44.38
